Time;durP1;ratioP1;P1;durP2;ratioP2;P2;SDS_P1;SDS_P2;PMS_P1;PMS_P2;Temp;Humidity;BMP_temperature;BMP_pressure;BME280_temperature;BME280_humidity;BME280_pressure;Samples;Min_cycle;Max_cycle;Signal;HPM_P1;HPM_P2
2022/11/28 00:00:59;;;;;;;4.80;2.15;;;;;;;5.72;100.00;101137.97;5072499;28;20492;-74
2022/11/28 00:03:25;;;;;;;3.72;2.42;;;;;;;5.70;100.00;101144.28;5073402;28;20038;-74
2022/11/28 00:05:50;;;;;;;3.53;2.20;;;;;;;5.63;100.00;101122.94;5073879;28;20481;-74
2022/11/28 00:08:16;;;;;;;3.85;2.65;;;;;;;5.75;100.00;101129.91;5055511;28;20456;-74
2022/11/28 00:10:42;;;;;;;2.78;2.08;;;;;;;5.82;100.00;101137.34;5056120;28;20110;-74
2022/11/28 00:13:07;;;;;;;3.10;2.10;;;;;;;5.75;100.00;101127.28;5073335;28;20043;-74
2022/11/28 00:15:33;;;;;;;2.83;2.55;;;;;;;5.76;100.00;101113.25;5055816;28;20416;-74
2022/11/28 00:17:58;;;;;;;3.78;2.17;;;;;;;5.71;100.00;101099.66;5037755;28;20020;-74
2022/11/28 00:20:24;;;;;;;3.13;1.40;;;;;;;5.62;100.00;101083.75;5075258;28;20096;-74
2022/11/28 00:22:49;;;;;;;4.55;2.65;;;;;;;5.73;100.00;101100.38;5056222;28;20032;-74
2022/11/28 00:25:15;;;;;;;6.28;2.78;;;;;;;5.74;100.00;101085.50;5072307;28;20039;-74
2022/11/28 00:27:40;;;;;;;2.47;2.00;;;;;;;5.73;100.00;101095.16;5055799;28;20055;-74
2022/11/28 00:30:06;;;;;;;3.95;1.98;;;;;;;5.72;100.00;101088.22;5054658;28;20024;-74
2022/11/28 00:32:31;;;;;;;2.95;2.38;;;;;;;5.70;100.00;101071.78;5072837;28;20052;-74
2022/11/28 00:34:57;;;;;;;3.03;2.47;;;;;;;5.63;100.00;101054.03;5071279;28;20066;-74
2022/11/28 00:37:22;;;;;;;2.53;2.33;;;;;;;5.73;100.00;101062.88;5055409;28;20544;-74
2022/11/28 00:39:47;;;;;;;4.35;3.28;;;;;;;5.68;100.00;101052.75;5073434;28;20043;-74
2022/11/28 00:42:13;;;;;;;2.80;2.50;;;;;;;5.76;100.00;101071.34;5073432;28;20028;-74
2022/11/28 00:44:38;;;;;;;3.53;3.22;;;;;;;5.85;100.00;101069.00;5073528;28;20123;-74
2022/11/28 00:47:04;;;;;;;3.60;2.10;;;;;;;5.77;100.00;101069.56;5040859;28;20036;-74
2022/11/28 00:49:29;;;;;;;2.40;2.13;;;;;;;5.85;100.00;101063.75;5042445;28;20064;-74
2022/11/28 00:51:54;;;;;;;6.22;2.35;;;;;;;5.73;100.00;101061.09;5069860;28;20036;-74
2022/11/28 00:54:20;;;;;;;3.40;1.85;;;;;;;5.78;100.00;101064.19;5056574;28;20068;-74
2022/11/28 00:56:45;;;;;;;3.72;2.30;;;;;;;5.74;100.00;101068.00;5072557;28;20032;-74
2022/11/28 00:59:10;;;;;;;1.55;1.45;;;;;;;5.75;100.00;101059.19;5053598;28;20039;-74
2022/11/28 01:01:40;;;;;;;3.00;2.67;;;;;;;5.68;100.00;101044.91;5059289;28;20082;-74
2022/11/28 01:04:08;;;;;;;4.80;2.95;;;;;;;5.81;100.00;101054.44;5076940;28;20448;-74
2022/11/28 01:06:40;;;;;;;4.28;2.35;;;;;;;5.76;100.00;101053.00;5078820;28;20530;-74
2022/11/28 01:09:09;;;;;;;7.47;3.55;;;;;;;5.82;100.00;101049.09;5061168;28;20711;-74
2022/11/28 01:11:38;;;;;;;4.68;2.60;;;;;;;5.83;100.00;101042.06;5076687;28;20404;-74
2022/11/28 01:14:04;;;;;;;3.95;2.00;;;;;;;5.71;100.00;101021.09;5077490;28;20077;-74
2022/11/28 01:16:29;;;;;;;3.72;2.28;;;;;;;5.77;100.00;101030.28;5058432;28;20028;-74
2022/11/28 01:18:56;;;;;;;2.45;2.22;;;;;;;5.86;100.00;101031.38;5061278;28;20589;-74
2022/11/28 01:21:21;;;;;;;2.42;2.22;;;;;;;5.81;100.00;101021.22;5077012;28;20032;-74
2022/11/28 01:23:47;;;;;;;3.65;2.38;;;;;;;5.86;100.00;101018.28;5077204;28;20211;-74
2022/11/28 01:26:18;;;;;;;3.60;2.45;;;;;;;5.89;100.00;101018.03;5073067;28;20203;-74
2022/11/28 01:28:44;;;;;;;3.00;2.25;;;;;;;5.67;100.00;100980.38;5076870;28;20491;-74
2022/11/28 01:31:12;;;;;;;1.63;1.48;;;;;;;5.76;100.00;100994.56;5056532;28;20049;-74
2022/11/28 01:33:38;;;;;;;2.95;2.17;;;;;;;5.93;100.00;101001.97;5078402;28;20077;-75
2022/11/28 01:36:03;;;;;;;3.92;2.70;;;;;;;5.97;100.00;101000.84;5043549;28;20040;-75
2022/11/28 01:38:29;;;;;;;5.03;3.33;;;;;;;6.01;100.00;100990.97;5076519;28;20024;-75
2022/11/28 01:40:55;;;;;;;3.45;2.63;;;;;;;6.03;100.00;100989.06;5073895;28;20032;-75
2022/11/28 01:43:21;;;;;;;5.78;2.97;;;;;;;6.05;100.00;100992.38;5058523;28;20040;-75
2022/11/28 01:45:47;;;;;;;2.78;2.58;;;;;;;5.92;100.00;100970.66;5074841;28;20051;-75
2022/11/28 01:48:21;;;;;;;4.03;2.72;;;;;;;5.98;100.00;100975.47;5059773;28;20025;-75
2022/11/28 01:50:50;;;;;;;5.63;2.83;;;;;;;5.92;100.00;100947.06;5059120;28;20020;-75
2022/11/28 01:53:16;;;;;;;3.50;2.85;;;;;;;6.04;100.00;100947.97;5077243;28;20106;-75
2022/11/28 01:55:54;;;;;;;4.57;2.40;;;;;;;6.01;100.00;100949.03;5060381;28;20633;-74
2022/11/28 01:58:20;;;;;;;3.22;2.47;;;;;;;6.05;100.00;100958.31;5060915;28;20016;-74
2022/11/28 02:00:46;;;;;;;3.47;2.22;;;;;;;5.94;100.00;100940.81;5042675;28;20043;-74
2022/11/28 02:03:23;;;;;;;6.18;3.47;;;;;;;5.96;100.00;100949.38;5059150;28;20039;-74
2022/11/28 02:05:51;;;;;;;6.22;3.10;;;;;;;6.05;100.00;100944.38;5077558;28;20033;-74
2022/11/28 02:08:16;;;;;;;3.00;2.70;;;;;;;6.01;100.00;100941.19;5055819;28;20607;-74
2022/11/28 02:11:03;;;;;;;2.53;2.33;;;;;;;6.05;100.00;100937.34;5077158;28;20021;-74
2022/11/28 02:14:13;;;;;;;2.85;2.42;;;;;;;6.06;100.00;100941.66;5075732;28;20032;-74
2022/11/28 02:17:01;;;;;;;3.28;2.67;;;;;;;5.98;100.00;100938.78;5056145;28;20028;-75
2022/11/28 02:20:04;;;;;;;5.07;2.53;;;;;;;6.04;100.00;100938.31;5075414;28;20090;-75
2022/11/28 02:22:38;;;;;;;4.75;3.05;;;;;;;5.97;100.00;100942.38;5059933;28;20027;-75
2022/11/28 02:25:15;;;;;;;4.10;2.80;;;;;;;5.96;100.00;100938.06;5056509;28;20043;-75
2022/11/28 02:28:06;;;;;;;7.88;2.65;;;;;;;5.85;100.00;100940.66;5074936;28;20032;-75
2022/11/28 02:31:14;;;;;;;6.53;2.38;;;;;;;5.86;100.00;100944.94;5075234;28;20025;-75
2022/11/28 02:33:54;;;;;;;3.75;2.13;;;;;;;5.86;100.00;100947.56;5074251;28;20039;-74
2022/11/28 02:36:32;;;;;;;4.05;3.53;;;;;;;5.86;100.00;100944.94;5076382;28;20055;-74
2022/11/28 02:39:19;;;;;;;4.13;3.42;;;;;;;5.85;100.00;100948.50;5072773;28;20637;-75
2022/11/28 02:41:52;;;;;;;6.38;3.28;;;;;;;5.83;100.00;100939.94;5074263;28;20021;-75
2022/11/28 02:44:23;;;;;;;3.40;2.40;;;;;;;5.74;100.00;100952.75;5075699;28;20439;-75
2022/11/28 02:47:12;;;;;;;2.40;2.10;;;;;;;5.78;100.00;100950.75;5057597;28;20028;-74
2022/11/28 02:50:07;;;;;;;5.13;3.28;;;;;;;5.75;100.00;100953.63;5075985;28;20032;-74
2022/11/28 02:52:45;;;;;;;5.35;3.10;;;;;;;5.75;100.00;100953.63;5067128;28;20115;-74
2022/11/28 02:55:13;;;;;;;4.03;2.58;;;;;;;5.69;100.00;100947.03;5074432;28;20099;-74
2022/11/28 02:57:47;;;;;;;4.32;3.13;;;;;;;5.81;100.00;100963.59;5077364;28;20020;-74
2022/11/28 03:00:30;;;;;;;4.80;2.92;;;;;;;5.85;100.00;100962.44;5057400;28;20070;-74
2022/11/28 03:03:07;;;;;;;6.10;4.25;;;;;;;5.84;100.00;100962.56;5059641;28;20081;-74
2022/11/28 03:05:40;;;;;;;6.65;4.15;;;;;;;5.77;100.00;100965.63;5075884;28;20027;-74
2022/11/28 03:08:28;;;;;;;4.63;4.18;;;;;;;5.82;100.00;100965.28;5076357;28;20115;-74
2022/11/28 03:11:06;;;;;;;6.43;4.53;;;;;;;5.77;100.00;100967.44;5072672;28;20051;-74
2022/11/28 03:13:43;;;;;;;4.97;3.78;;;;;;;5.83;100.00;100960.88;5054157;28;20070;-74
2022/11/28 03:16:30;;;;;;;5.20;3.25;;;;;;;5.90;100.00;100960.31;5058172;28;20033;-74
2022/11/28 03:19:21;;;;;;;5.22;4.30;;;;;;;5.90;100.00;100959.44;5076039;28;20460;-74
2022/11/28 03:22:05;;;;;;;5.90;3.75;;;;;;;5.91;100.00;100963.75;5030792;28;20040;-74
2022/11/28 03:24:40;;;;;;;14.52;3.50;;;;;;;5.84;100.00;100952.09;5069537;28;20055;-74
2022/11/28 03:27:31;;;;;;;5.35;4.25;;;;;;;5.85;100.00;100951.13;5057587;28;20124;-74
2022/11/28 03:30:03;;;;;;;6.00;3.80;;;;;;;5.71;100.00;100937.28;5076222;28;20508;-74
2022/11/28 03:32:36;;;;;;;6.07;4.10;;;;;;;5.85;100.00;100938.03;5057305;28;20309;-74
2022/11/28 03:35:06;;;;;;;3.78;3.20;;;;;;;5.86;100.00;100939.72;5057454;28;20024;-74
2022/11/28 03:37:37;;;;;;;8.00;4.67;;;;;;;5.85;100.00;100935.41;5057331;28;20050;-74
2022/11/28 03:40:06;;;;;;;5.35;4.28;;;;;;;5.85;100.00;100938.84;5055507;28;20078;-74
2022/11/28 03:42:38;;;;;;;3.92;3.63;;;;;;;5.82;100.00;100933.03;5075462;28;20028;-74
2022/11/28 03:45:10;;;;;;;7.15;4.13;;;;;;;5.69;100.00;100918.25;5074347;28;20110;-74
2022/11/28 03:47:43;;;;;;;6.50;4.50;;;;;;;5.84;100.00;100926.72;5056844;28;20051;-74
2022/11/28 03:50:16;;;;;;;7.82;4.28;;;;;;;5.84;100.00;100920.66;5056688;28;20540;-74
2022/11/28 03:52:54;;;;;;;7.30;4.05;;;;;;;5.90;100.00;100935.88;5057530;28;20024;-74
2022/11/28 03:55:27;;;;;;;4.78;4.28;;;;;;;5.96;100.00;100933.66;5073953;28;20038;-74
2022/11/28 03:57:55;;;;;;;5.10;4.20;;;;;;;5.87;100.00;100947.44;5057084;28;20053;-74
2022/11/28 04:00:21;;;;;;;13.27;4.13;;;;;;;5.86;100.00;100939.72;5072554;28;20032;-74
2022/11/28 04:03:15;;;;;;;7.05;3.75;;;;;;;5.94;100.00;100939.94;5075554;28;20043;-74
2022/11/28 04:05:49;;;;;;;6.80;5.30;;;;;;;6.00;100.00;100936.88;5072613;28;20020;-74
2022/11/28 04:08:27;;;;;;;7.90;4.45;;;;;;;6.02;100.00;100940.22;5074410;28;20127;-74
2022/11/28 04:11:05;;;;;;;5.28;4.72;;;;;;;6.00;100.00;100943.91;5074911;28;20914;-74
2022/11/28 04:13:33;;;;;;;6.80;4.75;;;;;;;6.01;100.00;100953.44;5074190;28;20357;-74
2022/11/28 04:16:07;;;;;;;6.00;4.03;;;;;;;5.96;100.00;100930.19;5072862;28;20029;-74
2022/11/28 04:18:41;;;;;;;5.13;4.57;;;;;;;6.06;100.00;100931.16;5073657;28;20016;-74
2022/11/28 04:21:29;;;;;;;6.90;6.05;;;;;;;6.03;100.00;100928.81;5057486;28;20111;-74
2022/11/28 04:24:00;;;;;;;6.75;5.45;;;;;;;6.05;100.00;100924.25;5074766;28;20024;-74
2022/11/28 04:26:39;;;;;;;10.07;4.07;;;;;;;6.13;100.00;100928.91;5071755;28;20040;-74
2022/11/28 04:29:09;;;;;;;6.95;5.13;;;;;;;5.98;100.00;100912.59;5072627;28;20035;-74
2022/11/28 04:31:37;;;;;;;5.75;4.70;;;;;;;6.00;100.00;100904.63;5074365;28;20138;-74
2022/11/28 04:34:09;;;;;;;5.75;4.90;;;;;;;5.96;100.00;100910.06;5056235;28;20504;-74
2022/11/28 04:36:39;;;;;;;7.65;4.82;;;;;;;6.00;100.00;100905.44;5070062;28;20058;-74
2022/11/28 04:39:09;;;;;;;5.82;4.20;;;;;;;6.12;100.00;100920.22;5072234;28;20031;-74
2022/11/28 04:41:40;;;;;;;6.40;4.90;;;;;;;6.16;100.00;100926.91;5053756;28;20028;-74
2022/11/28 04:44:11;;;;;;;;;;;;;;;6.17;100.00;100928.53;5056490;28;20024;-74
2022/11/28 04:46:43;;;;;;;5.22;3.38;;;;;;;6.13;100.00;100916.63;5056870;28;20364;-74
2022/11/28 04:49:10;;;;;;;4.40;3.33;;;;;;;6.22;100.00;100929.97;5055520;28;20074;-74
2022/11/28 04:51:46;;;;;;;8.18;4.93;;;;;;;6.26;100.00;100939.28;5055623;28;20043;-74
2022/11/28 04:54:27;;;;;;;6.78;4.50;;;;;;;6.30;100.00;100919.75;5071796;28;20063;-74
2022/11/28 04:57:01;;;;;;;5.15;3.72;;;;;;;6.13;100.00;100894.84;5072375;28;20153;-74
2022/11/28 04:59:29;;;;;;;11.27;5.25;;;;;;;6.31;100.00;100926.63;5057419;28;20055;-74
2022/11/28 05:01:57;;;;;;;7.22;5.15;;;;;;;6.25;100.00;100922.72;5073621;28;20021;-74
2022/11/28 05:04:22;;;;;;;6.90;4.55;;;;;;;6.28;100.00;100929.50;5052932;28;20032;-74
2022/11/28 05:06:48;;;;;;;10.27;5.68;;;;;;;6.32;100.00;100931.75;5053685;28;20050;-74
2022/11/28 05:09:13;;;;;;;9.18;4.80;;;;;;;6.23;100.00;100908.03;5053815;28;20456;-74
2022/11/28 05:11:39;;;;;;;5.88;4.78;;;;;;;6.23;100.00;100915.91;5054894;28;20059;-74
2022/11/28 05:14:05;;;;;;;9.27;6.00;;;;;;;6.38;100.00;100936.53;5054847;28;20033;-74
2022/11/28 05:16:31;;;;;;;8.45;4.75;;;;;;;6.44;100.00;100943.06;5072687;28;20028;-74
2022/11/28 05:18:56;;;;;;;7.43;4.72;;;;;;;6.43;100.00;100938.78;5055199;28;20024;-74
2022/11/28 05:21:21;;;;;;;7.55;5.88;;;;;;;6.45;100.00;100947.38;5056182;28;20134;-74
2022/11/28 05:23:48;;;;;;;11.95;6.25;;;;;;;6.48;100.00;100936.63;5052333;28;20518;-74
2022/11/28 05:26:16;;;;;;;5.72;4.68;;;;;;;6.51;100.00;100935.53;5072894;28;20591;-74
2022/11/28 05:28:48;;;;;;;8.80;6.10;;;;;;;6.35;100.00;100910.53;5070144;28;20059;-74
2022/11/28 05:31:14;;;;;;;9.52;6.55;;;;;;;6.51;100.00;100943.41;5034067;28;20111;-74
2022/11/28 05:33:40;;;;;;;12.18;7.70;;;;;;;6.54;100.00;100940.56;5069675;28;20060;-74
2022/11/28 05:36:09;;;;;;;5.88;4.53;;;;;;;6.56;100.00;100933.41;5070912;28;20094;-74
2022/11/28 05:38:35;;;;;;;9.38;4.95;;;;;;;6.52;100.00;100940.69;5069937;28;20111;-74
2022/11/28 05:41:01;;;;;;;8.68;5.45;;;;;;;6.54;100.00;100938.75;5072257;28;20027;-74
2022/11/28 05:43:27;;;;;;;8.77;5.70;;;;;;;6.55;100.00;100948.31;5051217;28;20369;-74
2022/11/28 05:45:53;;;;;;;7.88;5.13;;;;;;;6.62;100.00;100951.28;5067236;28;20069;-74
2022/11/28 05:48:18;;;;;;;8.10;6.07;;;;;;;6.62;100.00;100955.66;5074016;28;20036;-74
2022/11/28 05:50:44;;;;;;;7.28;4.88;;;;;;;6.63;100.00;100955.56;5070661;28;20044;-74
2022/11/28 05:53:10;;;;;;;9.30;6.00;;;;;;;6.57;100.00;100946.38;5055871;28;20040;-74
2022/11/28 05:55:39;;;;;;;8.95;5.78;;;;;;;6.66;100.00;100955.31;5075225;28;20035;-74
2022/11/28 05:58:04;;;;;;;9.85;7.63;;;;;;;6.71;100.00;100957.59;5072943;28;20028;-74
2022/11/28 06:00:30;;;;;;;6.60;5.35;;;;;;;6.75;100.00;100953.75;5071369;28;20051;-74
2022/11/28 06:02:56;;;;;;;6.85;5.72;;;;;;;6.65;100.00;100937.09;5068045;28;20035;-74
2022/11/28 06:05:22;;;;;;;13.15;7.72;;;;;;;6.74;100.00;100949.47;5075035;28;20051;-74
2022/11/28 06:07:47;;;;;;;9.88;6.53;;;;;;;6.69;100.00;100949.00;5040304;28;20443;-74
2022/11/28 06:10:12;;;;;;;5.72;4.18;;;;;;;6.77;100.00;100957.06;5020409;28;20025;-75
2022/11/28 06:12:38;;;;;;;9.30;5.93;;;;;;;6.80;100.00;100962.09;5043924;28;20033;-74
2022/11/28 06:15:03;;;;;;;11.13;6.78;;;;;;;6.71;100.00;100947.09;5058483;28;20041;-74
2022/11/28 06:17:30;;;;;;;8.90;5.47;;;;;;;6.68;100.00;100939.47;5057783;28;20041;-75
2022/11/28 06:19:55;;;;;;;6.22;4.80;;;;;;;6.88;100.00;100970.19;5037944;28;20032;-74
2022/11/28 06:22:21;;;;;;;6.63;6.00;;;;;;;6.74;100.00;100952.09;5038734;28;20046;-73
2022/11/28 06:24:46;;;;;;;9.48;5.78;;;;;;;6.92;100.00;100968.97;5024263;28;20051;-73
2022/11/28 06:27:11;;;;;;;11.38;7.65;;;;;;;6.96;100.00;100973.00;5057245;28;20162;-75
2022/11/28 06:29:37;;;;;;;10.00;6.68;;;;;;;6.98;100.00;100975.53;5039652;28;20115;-74
2022/11/28 06:32:03;;;;;;;8.65;5.50;;;;;;;6.93;100.00;100961.94;5024514;28;20536;-74
2022/11/28 06:34:28;;;;;;;11.50;6.25;;;;;;;6.90;100.00;100941.19;5054948;28;20553;-74
2022/11/28 06:36:54;;;;;;;9.63;5.65;;;;;;;7.13;100.00;100976.06;5036980;28;20028;-74
2022/11/28 06:39:20;;;;;;;9.30;6.63;;;;;;;7.19;100.00;100983.47;5028900;28;20033;-74
2022/11/28 06:41:45;;;;;;;8.40;6.18;;;;;;;7.15;100.00;100979.41;5038402;28;20035;-74
2022/11/28 06:44:13;;;;;;;11.68;7.35;;;;;;;7.04;100.00;100953.22;5020496;28;20066;-75
2022/11/28 06:46:39;;;;;;;16.40;7.70;;;;;;;7.09;100.00;100974.66;5055345;28;20052;-74
2022/11/28 06:49:05;;;;;;;7.43;5.68;;;;;;;7.19;100.00;100978.22;5054792;28;20391;-74
2022/11/28 06:51:30;;;;;;;13.90;7.43;;;;;;;7.22;100.00;100977.94;5037392;28;20021;-74
2022/11/28 06:53:55;;;;;;;11.57;6.35;;;;;;;7.16;100.00;100967.94;5054548;28;20950;-74
2022/11/28 06:56:21;;;;;;;9.85;6.68;;;;;;;7.29;100.00;100986.16;5019895;28;20025;-74
2022/11/28 06:58:53;;;;;;;6.93;6.15;;;;;;;7.28;100.00;100985.31;5027717;28;20027;-74
2022/11/28 07:01:21;;;;;;;7.88;4.85;;;;;;;7.27;100.00;100986.28;5038147;28;20025;-75
2022/11/28 07:03:47;;;;;;;7.72;6.60;;;;;;;7.32;100.00;100989.38;5058849;28;20032;-75
2022/11/28 07:06:15;;;;;;;9.13;5.88;;;;;;;7.30;100.00;100986.03;5059275;28;20439;-75
2022/11/28 07:08:41;;;;;;;8.40;3.72;;;;;;;7.33;100.00;100991.03;5058361;28;20034;-75
2022/11/28 07:11:12;;;;;;;6.78;6.15;;;;;;;7.29;100.00;100989.59;5058010;28;20106;-75
2022/11/28 07:13:39;;;;;;;11.75;7.05;;;;;;;7.43;100.00;100990.28;5057474;28;20400;-75
2022/11/28 07:16:05;;;;;;;8.68;6.30;;;;;;;7.40;100.00;100992.22;5057298;28;20435;-75
2022/11/28 07:18:31;;;;;;;6.93;5.90;;;;;;;7.32;100.00;100985.94;5057078;28;20033;-75
2022/11/28 07:20:56;;;;;;;9.80;6.05;;;;;;;7.40;100.00;101001.84;5039639;28;20395;-75
2022/11/28 07:23:21;;;;;;;9.20;5.40;;;;;;;7.37;100.00;101002.13;5057123;28;20075;-75
2022/11/28 07:25:47;;;;;;;8.98;6.18;;;;;;;7.24;100.00;100986.53;5014017;28;20032;-75
2022/11/28 07:28:12;;;;;;;7.35;5.78;;;;;;;7.35;100.00;101001.41;5024848;28;20037;-75
2022/11/28 07:30:37;;;;;;;9.40;7.38;;;;;;;7.34;100.00;100990.09;5041209;28;20561;-75
2022/11/28 07:33:03;;;;;;;8.88;5.80;;;;;;;7.20;100.00;100966.75;5025017;28;20389;-75
2022/11/28 07:35:28;;;;;;;8.32;5.97;;;;;;;7.37;100.00;100996.88;5039314;28;20037;-75
2022/11/28 07:37:53;;;;;;;19.35;5.80;;;;;;;7.39;100.00;101011.53;5058458;28;20036;-75
2022/11/28 07:40:21;;;;;;;9.20;6.30;;;;;;;7.38;100.00;100998.53;5058951;28;20020;-74
2022/11/28 07:42:47;;;;;;;8.32;6.35;;;;;;;7.38;100.00;100999.38;5041320;28;20028;-74
2022/11/28 07:45:13;;;;;;;12.40;7.18;;;;;;;7.16;100.00;100979.28;5059099;28;20029;-74
2022/11/28 07:47:38;;;;;;;13.65;8.15;;;;;;;7.30;100.00;100986.03;5040003;28;20508;-75
2022/11/28 07:50:04;;;;;;;7.47;5.63;;;;;;;7.44;100.00;100997.19;5023820;28;20116;-75
2022/11/28 07:52:30;;;;;;;8.93;6.50;;;;;;;7.30;100.00;100982.59;5024760;28;20037;-75
2022/11/28 07:54:55;;;;;;;7.10;5.72;;;;;;;7.29;100.00;100988.78;5025017;28;20418;-75
2022/11/28 07:57:21;;;;;;;8.35;6.60;;;;;;;7.42;100.00;101002.56;5040049;28;20046;-75
2022/11/28 07:59:46;;;;;;;9.23;6.28;;;;;;;7.33;100.00;100980.53;5056819;28;20020;-75
2022/11/28 08:02:12;;;;;;;8.55;5.13;;;;;;;7.30;100.00;100978.16;5023523;28;20634;-75
2022/11/28 08:04:38;;;;;;;10.80;6.93;;;;;;;7.44;100.00;100994.56;5039683;28;20043;-74
2022/11/28 08:07:03;;;;;;;9.02;7.22;;;;;;;7.46;100.00;100997.91;5054163;28;20040;-74
2022/11/28 08:09:30;;;;;;;8.95;6.35;;;;;;;7.41;100.00;100993.88;5055835;28;20029;-74
2022/11/28 08:11:56;;;;;;;6.47;5.72;;;;;;;7.43;100.00;100988.50;5055627;28;20389;-74
2022/11/28 08:14:21;;;;;;;10.30;6.65;;;;;;;7.29;100.00;100978.28;5037989;28;20078;-74
2022/11/28 08:16:48;;;;;;;6.90;6.07;;;;;;;7.45;100.00;100985.72;5055646;28;20499;-74
2022/11/28 08:19:13;;;;;;;8.48;5.80;;;;;;;7.40;100.00;100993.97;5005298;28;20040;-74
2022/11/28 08:21:39;;;;;;;7.80;5.63;;;;;;;7.32;100.00;100986.75;5056901;28;20033;-74
2022/11/28 08:24:06;;;;;;;9.38;5.97;;;;;;;7.39;100.00;100995.78;5055485;28;20728;-74
2022/11/28 08:26:33;;;;;;;8.77;6.03;;;;;;;7.34;100.00;101007.63;5055951;28;20044;-74
2022/11/28 08:29:00;;;;;;;9.07;5.57;;;;;;;7.34;100.00;101007.63;5037262;28;20510;-74
2022/11/28 08:31:31;;;;;;;10.45;6.13;;;;;;;7.35;100.00;101010.13;5055947;28;20111;-74
2022/11/28 08:33:59;;;;;;;7.90;5.70;;;;;;;7.44;100.00;101018.22;5056823;28;20111;-74
2022/11/28 08:36:25;;;;;;;5.97;4.30;;;;;;;7.40;100.00;101015.84;5055822;28;20488;-74
2022/11/28 08:38:51;;;;;;;8.38;4.93;;;;;;;7.33;100.00;101012.03;5054671;28;20048;-74
2022/11/28 08:41:19;;;;;;;7.90;5.68;;;;;;;7.44;100.00;101024.28;5056047;28;20047;-74
2022/11/28 08:43:45;;;;;;;8.93;5.50;;;;;;;7.39;100.00;101011.53;5055863;28;20434;-74
2022/11/28 08:46:14;;;;;;;7.65;5.55;;;;;;;7.43;100.00;101027.88;5036598;28;20024;-74
2022/11/28 08:48:40;;;;;;;10.27;6.15;;;;;;;7.28;100.00;101008.97;5037036;28;20115;-74
2022/11/28 08:51:08;;;;;;;8.00;5.18;;;;;;;7.47;100.00;101025.81;5020914;28;20358;-74
2022/11/28 08:53:34;;;;;;;9.07;4.43;;;;;;;7.40;100.00;101022.88;5044346;28;20035;-74
2022/11/28 08:55:59;;;;;;;7.38;4.88;;;;;;;7.37;100.00;101018.69;5028284;28;20055;-74
2022/11/28 08:58:25;;;;;;;7.57;5.63;;;;;;;7.51;100.00;101032.50;5021512;28;20025;-74
2022/11/28 09:00:50;;;;;;;7.07;4.85;;;;;;;7.39;100.00;101031.72;5056450;28;20020;-74
2022/11/28 09:03:18;;;;;;;6.70;5.28;;;;;;;7.39;100.00;101016.78;5037267;28;20034;-74
2022/11/28 09:05:45;;;;;;;11.93;5.43;;;;;;;7.29;100.00;100994.03;5027797;28;20357;-74
2022/11/28 09:08:11;;;;;;;6.35;4.88;;;;;;;7.42;100.00;101034.09;5020407;28;20094;-74
2022/11/28 09:10:38;;;;;;;7.85;5.68;;;;;;;7.42;100.00;101026.19;5038239;28;20107;-74
2022/11/28 09:13:05;;;;;;;6.20;4.68;;;;;;;7.54;100.00;101040.16;5055009;28;20554;-74
2022/11/28 09:15:31;;;;;;;9.10;5.88;;;;;;;7.53;100.00;101033.22;5037192;28;20033;-74
2022/11/28 09:17:56;;;;;;;5.28;4.57;;;;;;;7.65;100.00;101053.22;5037169;28;20016;-74
2022/11/28 09:20:22;;;;;;;6.28;4.07;;;;;;;7.61;100.00;101051.81;5055056;28;20024;-74
2022/11/28 09:22:47;;;;;;;7.22;5.25;;;;;;;7.44;100.00;101033.97;5056345;28;20059;-74
2022/11/28 09:25:13;;;;;;;4.85;4.35;;;;;;;7.53;100.00;101043.72;5015204;28;20035;-74
2022/11/28 09:27:39;;;;;;;7.68;5.40;;;;;;;7.61;100.00;101038.66;5059274;28;20016;-74
2022/11/28 09:30:05;;;;;;;8.98;4.32;;;;;;;7.54;100.00;101042.78;5040042;28;20496;-74
2022/11/28 09:32:31;;;;;;;4.22;3.80;;;;;;;7.36;100.00;101027.56;5039402;28;20063;-74
2022/11/28 09:34:56;;;;;;;8.00;4.70;;;;;;;7.55;100.00;101049.69;5040672;28;20028;-74
2022/11/28 09:37:22;;;;;;;4.43;3.72;;;;;;;7.54;100.00;101061.16;5040631;28;20024;-74
2022/11/28 09:39:47;;;;;;;7.18;4.70;;;;;;;7.61;100.00;101062.31;5057777;28;20040;-74
2022/11/28 09:42:38;;;;;;;4.57;3.63;;;;;;;7.68;100.00;101066.09;5039995;28;20051;-74
2022/11/28 09:45:30;;;;;;;4.03;3.17;;;;;;;7.64;100.00;101067.31;5058678;28;20091;-74
2022/11/28 09:48:11;;;;;;;3.92;3.38;;;;;;;7.60;100.00;101063.28;5056242;28;20489;-74
2022/11/28 09:50:40;;;;;;;4.10;3.63;;;;;;;7.61;100.00;101068.41;5055589;28;20032;-74
2022/11/28 09:53:38;;;;;;;3.50;2.60;;;;;;;7.60;100.00;101066.75;5058131;28;20039;-74
2022/11/28 09:56:15;;;;;;;4.10;3.30;;;;;;;7.57;100.00;101066.16;5039385;28;20482;-74
2022/11/28 09:58:52;;;;;;;5.88;3.08;;;;;;;7.60;100.00;101066.75;5057837;28;20021;-74
2022/11/28 10:01:33;;;;;;;3.90;2.70;;;;;;;7.62;100.00;101063.97;5040775;28;20067;-74
2022/11/28 10:04:10;;;;;;;4.18;3.25;;;;;;;7.60;100.00;101066.75;5059661;28;20121;-74
2022/11/28 10:06:42;;;;;;;4.57;3.05;;;;;;;7.63;100.00;101071.72;5047876;28;20596;-74
2022/11/28 10:09:41;;;;;;;3.22;2.25;;;;;;;7.69;100.00;101075.66;5056600;28;20025;-74
2022/11/28 10:12:26;;;;;;;4.35;3.45;;;;;;;7.68;100.00;101068.72;5057901;28;20076;-74
2022/11/28 10:15:30;;;;;;;4.03;2.95;;;;;;;7.70;100.00;101072.06;5048037;28;20459;-74
2022/11/28 10:18:13;;;;;;;5.85;2.30;;;;;;;7.68;100.00;101063.47;5039234;28;20124;-74
2022/11/28 10:20:43;;;;;;;3.25;2.15;;;;;;;7.58;100.00;101054.69;5046611;28;20485;-74
2022/11/28 10:23:31;;;;;;;4.72;2.53;;;;;;;7.58;100.00;101065.19;5058268;28;20028;-74
2022/11/28 10:26:06;;;;;;;2.47;2.03;;;;;;;7.62;100.00;101066.59;5058146;28;20374;-74
2022/11/28 10:28:36;;;;;;;3.45;2.72;;;;;;;7.58;100.00;101079.16;5047807;28;20016;-75
2022/11/28 10:31:07;;;;;;;39.70;38.13;;;;;;;7.54;100.00;101072.47;5055639;28;20111;-75
2022/11/28 10:33:57;;;;;;;2.92;2.58;;;;;;;7.52;100.00;101077.03;5057532;28;20028;-75
2022/11/28 10:36:44;;;;;;;3.65;2.70;;;;;;;7.61;100.00;101085.94;5056495;28;20041;-74
2022/11/28 10:39:13;;;;;;;4.15;3.03;;;;;;;7.50;100.00;101088.63;5046384;28;20476;-74
2022/11/28 10:42:10;;;;;;;4.57;3.60;;;;;;;7.59;100.00;101090.50;5039974;28;20039;-74
2022/11/28 10:45:11;;;;;;;7.38;2.65;;;;;;;7.55;100.00;101094.31;5004892;28;20657;-75
2022/11/28 10:47:55;;;;;;;4.05;2.67;;;;;;;7.63;100.00;101099.78;5057716;28;20059;-74
2022/11/28 10:50:37;;;;;;;3.05;2.75;;;;;;;7.58;100.00;101086.22;5056902;28;20106;-74
2022/11/28 10:53:03;;;;;;;4.45;2.92;;;;;;;7.77;100.00;101102.16;5037620;28;20040;-74
2022/11/28 10:55:52;;;;;;;3.45;2.90;;;;;;;7.71;100.00;101100.00;5057731;28;20021;-74
2022/11/28 10:58:21;;;;;;;1.27;1.15;;;;;;;7.71;100.00;101093.91;5057183;28;20028;-74
2022/11/28 11:00:50;;;;;;;2.60;2.20;;;;;;;7.76;100.00;101107.53;5056399;28;20020;-74
2022/11/28 11:03:26;;;;;;;1.95;1.75;;;;;;;7.70;100.00;101093.06;5022479;28;20503;-74
2022/11/28 11:05:51;;;;;;;3.70;2.75;;;;;;;7.79;100.00;101105.44;5056648;28;20444;-74
2022/11/28 11:08:20;;;;;;;2.90;2.30;;;;;;;7.80;100.00;101099.25;5038244;28;20032;-74
2022/11/28 11:11:00;;;;;;;1.88;1.65;;;;;;;7.86;100.00;101111.06;5056992;28;20060;-74
2022/11/28 11:13:30;;;;;;;3.58;2.63;;;;;;;7.83;100.00;101103.41;5038746;28;20082;-74
2022/11/28 11:16:09;;;;;;;4.35;2.33;;;;;;;7.93;100.00;101108.78;5038535;28;20031;-74
2022/11/28 11:18:49;;;;;;;4.20;2.33;;;;;;;7.73;100.00;101074.44;5057540;28;20027;-74
2022/11/28 11:21:21;;;;;;;3.25;2.50;;;;;;;7.94;100.00;101107.78;5045350;28;20123;-74
2022/11/28 11:23:48;;;;;;;3.03;2.22;;;;;;;7.86;100.00;101091.81;5056519;28;20032;-74
2022/11/28 11:26:40;;;;;;;4.25;2.70;;;;;;;7.92;100.00;101099.19;5038945;28;20043;-74
2022/11/28 11:29:18;;;;;;;3.40;2.17;;;;;;;7.93;100.00;101093.81;5056577;28;20041;-74
2022/11/28 11:31:50;;;;;;;4.85;3.25;;;;;;;7.99;100.00;101093.31;5056497;28;20133;-74
2022/11/28 11:34:18;;;;;;;2.10;1.80;;;;;;;7.92;100.00;101086.06;5054967;28;20036;-74
2022/11/28 11:36:44;;;;;;;3.15;2.78;;;;;;;7.82;100.00;101076.31;5056073;28;20029;-74
2022/11/28 11:39:09;;;;;;;4.32;2.45;;;;;;;7.97;100.00;101091.75;5045725;28;20477;-74
2022/11/28 11:41:36;;;;;;;6.60;2.97;;;;;;;7.94;100.00;101084.16;5038215;28;20036;-74